createdAt,value
2023-03-29T00:03:07.630Z,102396.56
2023-03-29T00:08:14.541Z,102397.06
2023-03-29T00:13:17.209Z,102392.63
2023-03-29T00:18:19.205Z,102384.19
2023-03-29T00:23:22.683Z,102382.75
2023-03-29T00:28:24.741Z,102372.88
2023-03-29T00:33:27.497Z,102363.81
2023-03-29T00:38:30.788Z,102367.88
2023-03-29T00:44:14.680Z,102362.41
2023-03-29T00:49:17.161Z,102355.25
2023-03-29T00:54:22.863Z,102364.31
2023-03-29T00:59:28.266Z,102367.81
2023-03-29T01:05:26.157Z,102364.50
2023-03-29T01:10:47.062Z,102368.81
2023-03-29T01:15:49.307Z,102370.38
2023-03-29T01:21:22.376Z,102367.56
2023-03-29T01:26:43.787Z,102371.31
2023-03-29T01:31:51.738Z,102357.50
2023-03-29T01:37:04.450Z,102363.72
2023-03-29T01:42:21.492Z,102353.50
2023-03-29T01:47:33.129Z,102357.81
2023-03-29T01:52:48.832Z,102371.16
2023-03-29T01:57:54.819Z,102363.69
2023-03-29T02:03:03.415Z,102348.00
2023-03-29T02:08:09.357Z,102357.44
2023-03-29T02:13:23.033Z,102319.28
2023-03-29T02:18:26.037Z,102348.47
2023-03-29T02:23:50.038Z,102327.06
2023-03-29T02:28:57.608Z,102324.53
2023-03-29T02:34:10.399Z,102323.13
2023-03-29T02:39:15.907Z,102323.13
2023-03-29T02:44:24.732Z,102318.13
2023-03-29T02:49:28.342Z,102310.75
2023-03-29T02:54:31.659Z,102304.47
2023-03-29T02:59:34.706Z,102314.91
2023-03-29T03:04:37.682Z,102299.69
2023-03-29T03:09:43.377Z,102294.22
2023-03-29T03:14:45.757Z,102299.78
2023-03-29T03:19:48.272Z,102293.81
2023-03-29T03:24:51.331Z,102293.31
2023-03-29T03:29:53.644Z,102282.13
2023-03-29T03:35:34.972Z,102295.56
2023-03-29T03:40:37.136Z,102286.75
2023-03-29T03:45:50.079Z,102283.94
2023-03-29T03:50:59.267Z,102283.72
2023-03-29T03:56:09.270Z,102285.22
2023-03-29T04:01:36.792Z,102273.25
2023-03-29T04:11:28.393Z,102292.34
2023-03-29T04:16:37.215Z,102291.66
2023-03-29T04:22:05.638Z,102299.66
2023-03-29T04:27:18.574Z,102302.78
2023-03-29T04:32:27.670Z,102315.72
2023-03-29T04:37:45.443Z,102319.91
2023-03-29T04:48:19.797Z,102328.59
2023-03-29T04:53:34.020Z,102331.91
2023-03-29T04:58:38.852Z,102338.94
2023-03-29T05:03:46.156Z,102334.19
2023-03-29T05:08:57.057Z,102350.22
2023-03-29T05:14:36.636Z,102358.06
2023-03-29T05:19:46.622Z,102349.03
2023-03-29T05:25:00.334Z,102359.84
2023-03-29T05:30:18.683Z,102357.34
2023-03-29T05:35:49.270Z,102354.72
2023-03-29T05:40:53.586Z,102353.28
2023-03-29T05:46:24.624Z,102350.81
2023-03-29T05:51:35.433Z,102360.78
2023-03-29T05:56:41.302Z,102353.88
2023-03-29T06:01:48.871Z,102366.47
2023-03-29T06:06:59.832Z,102355.91
2023-03-29T06:12:04.421Z,102360.28
2023-03-29T06:17:29.950Z,102365.53
2023-03-29T06:22:35.906Z,102357.94
2023-03-29T06:27:52.472Z,102362.91
2023-03-29T06:38:23.228Z,102361.63
2023-03-29T06:43:41.135Z,102366.72
2023-03-29T06:49:03.745Z,102357.34
2023-03-29T06:54:21.989Z,102345.81
2023-03-29T06:59:40.142Z,102353.19
2023-03-29T07:05:11.709Z,102356.75
2023-03-29T07:10:36.922Z,102352.72
2023-03-29T07:16:01.052Z,102338.88
2023-03-29T07:21:26.680Z,102337.44
2023-03-29T07:26:35.974Z,102329.63
2023-03-29T07:31:42.424Z,102335.84
2023-03-29T07:37:09.099Z,102344.00
2023-03-29T07:42:21.144Z,102347.38
2023-03-29T07:47:30.915Z,102350.41
2023-03-29T07:57:56.297Z,102344.47
2023-03-29T08:03:02.677Z,102342.88
2023-03-29T08:08:15.705Z,102343.44
2023-03-29T08:13:31.720Z,102347.34
2023-03-29T08:19:07.539Z,102359.75
2023-03-29T08:24:42.800Z,102362.25
2023-03-29T08:29:51.840Z,102365.28
2023-03-29T08:34:56.445Z,102369.69
2023-03-29T08:40:11.342Z,102371.06
2023-03-29T08:46:00.752Z,102360.84
2023-03-29T08:51:24.947Z,102363.88
2023-03-29T08:56:34.457Z,102351.97
2023-03-29T09:02:22.433Z,102357.75
2023-03-29T09:07:39.219Z,102363.84
2023-03-29T09:13:19.806Z,102362.97
2023-03-29T09:18:48.660Z,102351.59
2023-03-29T09:24:22.692Z,102353.25
2023-03-29T09:29:58.558Z,102362.19
2023-03-29T09:35:36.713Z,102370.19
2023-03-29T09:40:58.438Z,102374.91
2023-03-29T09:46:19.922Z,102359.97
2023-03-29T09:51:36.346Z,102364.94
2023-03-29T09:56:43.745Z,102351.16
2023-03-29T10:02:09.497Z,102342.03
2023-03-29T10:07:23.687Z,102343.44
2023-03-29T10:12:41.699Z,102349.50
2023-03-29T10:17:51.132Z,102339.25
2023-03-29T10:23:00.325Z,102327.38
2023-03-29T10:28:12.861Z,102314.09
2023-03-29T10:33:25.931Z,102318.53
2023-03-29T10:38:32.943Z,102324.88
2023-03-29T10:43:52.890Z,102308.03
2023-03-29T10:49:10.648Z,102331.81
2023-03-29T10:54:23.539Z,102327.41
2023-03-29T10:59:30.045Z,102290.72
2023-03-29T11:05:17.856Z,102304.81
2023-03-29T11:10:41.798Z,102302.03
2023-03-29T11:16:13.913Z,102301.50
2023-03-29T11:21:43.116Z,102302.63
2023-03-29T11:32:40.642Z,102293.78
2023-03-29T11:38:22.073Z,102278.41
2023-03-29T11:44:06.324Z,102276.41
2023-03-29T11:49:40.533Z,102257.09
2023-03-29T11:55:17.414Z,102278.38
2023-03-29T12:00:31.757Z,102253.28
2023-03-29T12:17:21.925Z,102228.66
2023-03-29T12:22:36.141Z,102229.22
2023-03-29T12:28:02.106Z,102223.47
2023-03-29T12:33:20.174Z,102211.81
2023-03-29T12:38:32.713Z,102219.31
2023-03-29T12:43:53.599Z,102210.53
2023-03-29T12:48:58.374Z,102210.84
2023-03-29T12:54:10.279Z,102213.63
2023-03-29T12:59:27.952Z,102190.50
2023-03-29T13:04:51.568Z,102202.91
2023-03-29T13:10:29.541Z,102180.59
2023-03-29T13:15:35.936Z,102177.84
2023-03-29T13:20:46.195Z,102168.75
2023-03-29T13:25:48.455Z,102161.06
2023-03-29T13:30:59.625Z,102154.97
2023-03-29T13:36:37.671Z,102162.69
2023-03-29T13:41:54.650Z,102150.03
2023-03-29T13:47:39.447Z,102175.38
2023-03-29T13:53:00.886Z,102151.69
2023-03-29T13:58:32.076Z,102143.97
2023-03-29T14:09:08.724Z,102138.72
2023-03-29T14:14:11.484Z,102123.84
2023-03-29T14:19:23.897Z,102121.09
2023-03-29T14:24:28.752Z,102105.97
2023-03-29T14:29:35.157Z,102105.41
2023-03-29T14:34:45.164Z,102109.00
2023-03-29T14:39:49.494Z,102088.91
2023-03-29T14:44:57.164Z,102086.16
2023-03-29T14:50:01.757Z,102103.25
2023-03-29T14:55:04.985Z,102093.56
2023-03-29T15:00:19.952Z,102087.25
2023-03-29T15:05:44.218Z,102082.84
2023-03-29T15:10:56.210Z,102067.97
2023-03-29T15:16:07.519Z,102059.72
2023-03-29T15:21:14.888Z,102053.69
2023-03-29T15:26:37.767Z,102045.41
2023-03-29T15:31:41.962Z,102042.09
2023-03-29T15:36:50.534Z,102045.97
2023-03-29T15:41:59.293Z,102052.03
2023-03-29T15:52:25.226Z,102062.47
2023-03-29T15:57:34.543Z,102041.00
2023-03-29T16:02:45.976Z,102043.19
2023-03-29T16:07:50.248Z,102045.16
2023-03-29T16:13:02.198Z,102044.59
2023-03-29T16:18:07.541Z,102045.16
2023-03-29T16:23:22.267Z,102028.34
2023-03-29T16:28:30.418Z,102038.25
2023-03-29T16:33:33.756Z,102015.69
2023-03-29T16:38:35.981Z,102021.75
2023-03-29T16:43:38.753Z,102017.88
2023-03-29T16:48:40.952Z,102016.78
2023-03-29T16:53:43.493Z,102007.44
2023-03-29T16:58:45.880Z,102012.66
2023-03-29T17:03:51.175Z,102014.84
2023-03-29T17:08:53.847Z,102009.88
2023-03-29T17:13:56.308Z,102013.94
2023-03-29T17:19:01.380Z,102019.09
2023-03-29T17:24:06.447Z,102010.00
2023-03-29T17:29:08.796Z,102017.38
2023-03-29T17:34:13.211Z,102026.72
2023-03-29T17:39:18.815Z,102004.97
2023-03-29T17:44:21.107Z,102013.72
2023-03-29T17:49:23.268Z,102013.16
2023-03-29T17:54:25.391Z,102012.84
2023-03-29T17:59:37.466Z,102027.63
2023-03-29T18:04:46.540Z,102021.00
2023-03-29T18:09:57.936Z,102021.53
2023-03-29T18:15:20.167Z,102012.72
2023-03-29T18:20:26.223Z,102015.47
2023-03-29T18:25:29.549Z,102027.81
2023-03-29T18:30:31.744Z,102017.31
2023-03-29T18:35:34.643Z,102018.91
2023-03-29T18:40:39.173Z,102022.44
2023-03-29T18:45:43.061Z,102034.78
2023-03-29T18:50:46.596Z,102037.53
2023-03-29T18:55:53.004Z,102038.06
2023-03-29T19:01:09.688Z,102037.75
2023-03-29T19:06:15.758Z,102047.28
2023-03-29T19:11:21.437Z,102053.88
2023-03-29T19:16:23.761Z,102060.44
2023-03-29T19:21:27.888Z,102059.63
2023-03-29T19:26:30.704Z,102067.28
2023-03-29T19:31:33.575Z,102065.88
2023-03-29T19:36:35.934Z,102061.50
2023-03-29T19:41:39.996Z,102074.13
2023-03-29T19:46:44.283Z,102074.13
2023-03-29T19:51:48.009Z,102087.56
2023-03-29T19:56:52.731Z,102091.66
2023-03-29T20:02:02.775Z,102088.91
2023-03-29T20:07:05.354Z,102100.94
2023-03-29T20:12:07.531Z,102092.66
2023-03-29T20:17:11.830Z,102085.22
2023-03-29T20:22:21.813Z,102084.91
2023-03-29T20:27:25.616Z,102102.19
2023-03-29T20:32:28.150Z,102101.34
2023-03-29T20:37:30.375Z,102106.53
2023-03-29T20:42:34.620Z,102106.28
2023-03-29T20:47:42.584Z,102098.31
2023-03-29T20:52:45.195Z,102095.81
2023-03-29T20:57:54.316Z,102104.88
2023-03-29T21:03:10.128Z,102100.75
2023-03-29T21:08:19.001Z,102096.34
2023-03-29T21:13:23.014Z,102087.28
2023-03-29T21:18:28.635Z,102091.13
2023-03-29T21:23:55.498Z,102094.94
2023-03-29T21:29:02.685Z,102090.28
2023-03-29T21:34:25.632Z,102091.63
2023-03-29T21:39:32.740Z,102100.13
2023-03-29T21:49:59.085Z,102070.16
2023-03-29T21:55:12.237Z,102061.94
2023-03-29T22:00:29.867Z,102063.84
2023-03-29T22:05:36.764Z,102055.63
2023-03-29T22:10:41.689Z,102059.47
2023-03-29T22:21:16.440Z,102053.47
2023-03-29T22:26:32.011Z,102054.56
2023-03-29T22:37:07.812Z,102071.25
2023-03-29T22:42:22.788Z,102066.91
2023-03-29T22:47:37.110Z,102074.06
2023-03-29T22:52:43.366Z,102071.88
2023-03-29T22:57:49.443Z,102080.94
2023-03-29T23:03:02.991Z,102098.22
2023-03-29T23:08:16.106Z,102087.50
2023-03-29T23:13:37.745Z,102076.78
2023-03-29T23:18:42.010Z,102083.66
2023-03-29T23:23:51.460Z,102075.44
2023-03-29T23:29:03.326Z,102071.06
2023-03-29T23:34:08.279Z,102069.66
2023-03-29T23:39:22.498Z,102069.66
2023-03-29T23:44:37.410Z,102059.78
2023-03-29T23:55:07.365Z,102071.00
